Time;durP1;ratioP1;P1;durP2;ratioP2;P2;SDS_P1;SDS_P2;PMS_P1;PMS_P2;Temp;Humidity;BMP_temperature;BMP_pressure;BME280_temperature;BME280_humidity;BME280_pressure;Samples;Min_cycle;Max_cycle;Signal;HPM_P1;HPM_P2
2024/02/27 00:01:55;;;;;;;55.40;27.55;;;5.90;99.90;;;;;;5033327;28;20514;-67
2024/02/27 00:04:21;;;;;;;52.17;27.83;;;5.90;99.90;;;;;;5033143;28;20083;-67
2024/02/27 00:06:49;;;;;;;50.85;26.00;;;5.90;99.90;;;;;;5033371;28;20144;-67
2024/02/27 00:09:18;;;;;;;51.78;28.60;;;5.90;99.90;;;;;;5033393;28;20075;-67
2024/02/27 00:11:44;;;;;;;57.40;28.55;;;5.90;99.90;;;;;;5033187;28;20040;-68
2024/02/27 00:14:10;;;;;;;52.08;26.77;;;5.90;99.90;;;;;;5032917;28;20032;-68
2024/02/27 00:16:35;;;;;;;53.92;27.98;;;5.80;99.90;;;;;;5033244;28;20112;-68
2024/02/27 00:19:01;;;;;;;54.25;27.73;;;5.80;99.90;;;;;;5032859;28;20117;-68
2024/02/27 00:21:26;;;;;;;47.97;27.55;;;5.80;99.90;;;;;;5033165;28;20049;-68
2024/02/27 00:23:52;;;;;;;53.28;28.73;;;5.80;99.90;;;;;;5033126;28;20037;-68
2024/02/27 00:26:17;;;;;;;52.90;28.75;;;5.80;99.90;;;;;;5033138;28;20060;-68
2024/02/27 00:28:43;;;;;;;54.45;27.13;;;5.80;99.90;;;;;;5033107;28;20029;-68
2024/02/27 00:31:09;;;;;;;53.30;28.05;;;5.80;99.90;;;;;;5033080;28;20076;-68
2024/02/27 00:33:34;;;;;;;55.67;28.65;;;5.80;99.90;;;;;;5032952;28;20056;-68
2024/02/27 00:36:01;;;;;;;55.63;28.52;;;5.80;99.90;;;;;;5032634;28;20541;-68
2024/02/27 00:38:27;;;;;;;55.45;27.77;;;5.80;99.90;;;;;;5032774;28;20515;-68
2024/02/27 00:40:52;;;;;;;49.22;27.30;;;5.70;99.90;;;;;;5032515;28;20029;-67
2024/02/27 00:43:18;;;;;;;56.97;29.13;;;5.80;99.90;;;;;;5032671;28;20029;-67
2024/02/27 00:45:44;;;;;;;54.92;29.38;;;5.70;99.90;;;;;;5033020;28;20121;-67
2024/02/27 00:48:09;;;;;;;55.42;28.20;;;5.70;99.90;;;;;;5033008;28;20053;-68
2024/02/27 00:50:35;;;;;;;53.92;26.77;;;5.70;99.90;;;;;;5032798;28;20033;-67
2024/02/27 00:53:00;;;;;;;55.67;29.50;;;5.80;99.90;;;;;;5032675;28;20030;-67
2024/02/27 00:55:26;;;;;;;52.30;26.52;;;5.70;99.90;;;;;;5032924;28;20099;-68
2024/02/27 00:57:52;;;;;;;55.53;29.58;;;5.70;99.90;;;;;;5032381;28;20038;-68
2024/02/27 01:00:18;;;;;;;55.92;29.48;;;5.70;99.90;;;;;;5032815;28;20029;-67
2024/02/27 01:02:44;;;;;;;55.33;28.27;;;5.70;99.90;;;;;;5032687;28;20075;-68
2024/02/27 01:05:10;;;;;;;52.72;27.60;;;5.70;99.90;;;;;;5033450;28;20030;-68
2024/02/27 01:07:36;;;;;;;56.13;28.25;;;5.60;99.90;;;;;;5036411;28;20033;-68
2024/02/27 01:10:03;;;;;;;56.47;29.15;;;5.60;99.90;;;;;;5036415;28;20044;-68
2024/02/27 01:12:29;;;;;;;55.90;27.88;;;5.60;99.90;;;;;;5036249;28;20057;-67
2024/02/27 01:14:54;;;;;;;57.65;28.38;;;5.60;99.90;;;;;;5036126;28;20553;-68
2024/02/27 01:17:20;;;;;;;57.20;27.50;;;5.60;99.90;;;;;;5036019;28;20069;-68
2024/02/27 01:19:45;;;;;;;54.53;26.20;;;5.60;99.90;;;;;;5035914;28;20029;-67
2024/02/27 01:22:12;;;;;;;54.90;27.02;;;5.60;99.90;;;;;;5035954;28;20029;-68
2024/02/27 01:24:38;;;;;;;60.15;29.50;;;5.50;99.90;;;;;;5035941;28;20025;-67
2024/02/27 01:27:04;;;;;;;53.83;27.70;;;5.50;99.90;;;;;;5035779;28;20479;-67
2024/02/27 01:29:29;;;;;;;57.33;28.63;;;5.50;99.90;;;;;;5035897;28;20033;-67
2024/02/27 01:31:55;;;;;;;60.95;29.77;;;5.50;99.90;;;;;;5035894;28;20045;-67
2024/02/27 01:34:20;;;;;;;57.75;28.88;;;5.40;99.90;;;;;;5035744;28;20021;-67
2024/02/27 01:36:46;;;;;;;59.70;30.25;;;5.40;99.90;;;;;;5035807;28;20076;-67
2024/02/27 01:39:13;;;;;;;59.38;29.38;;;5.40;99.90;;;;;;5035441;28;20129;-67
2024/02/27 01:41:40;;;;;;;59.08;29.27;;;5.30;99.90;;;;;;5035679;28;20473;-67
2024/02/27 01:44:07;;;;;;;54.83;27.83;;;5.30;99.90;;;;;;5035673;28;20017;-67
2024/02/27 01:46:32;;;;;;;55.38;27.65;;;5.30;99.90;;;;;;5035461;28;20036;-67
2024/02/27 01:48:58;;;;;;;59.53;28.98;;;5.30;99.90;;;;;;5035585;28;20030;-67
2024/02/27 01:51:24;;;;;;;57.63;27.42;;;5.20;99.90;;;;;;5035395;28;20391;-67
2024/02/27 01:53:53;;;;;;;54.40;28.83;;;5.30;99.90;;;;;;5035361;28;20033;-67
2024/02/27 01:56:20;;;;;;;56.22;28.40;;;5.20;99.90;;;;;;5035536;28;20029;-67
2024/02/27 01:58:46;;;;;;;53.67;27.33;;;5.20;99.90;;;;;;5035026;28;20495;-68
2024/02/27 02:01:13;;;;;;;61.13;28.52;;;5.20;99.90;;;;;;5035461;28;20026;-68
2024/02/27 02:03:40;;;;;;;59.80;30.33;;;5.20;99.90;;;;;;5034968;28;20022;-68
2024/02/27 02:06:06;;;;;;;57.08;29.02;;;5.20;99.90;;;;;;5035297;28;20028;-68
2024/02/27 02:08:33;;;;;;;52.63;28.30;;;5.20;99.90;;;;;;5035018;28;20044;-68
2024/02/27 02:11:00;;;;;;;58.97;29.95;;;5.20;99.90;;;;;;5035131;28;20033;-68
2024/02/27 02:13:26;;;;;;;54.30;29.42;;;5.20;99.90;;;;;;5035110;28;20503;-68
2024/02/27 02:15:52;;;;;;;60.58;28.25;;;5.20;99.90;;;;;;5035166;28;20033;-67
2024/02/27 02:18:17;;;;;;;57.83;28.45;;;5.20;99.90;;;;;;5034922;28;20053;-68
2024/02/27 02:20:43;;;;;;;56.03;27.15;;;5.30;99.90;;;;;;5034836;28;20029;-67
2024/02/27 02:23:08;;;;;;;54.67;27.75;;;5.30;99.90;;;;;;5035040;28;20522;-67
2024/02/27 02:25:37;;;;;;;53.25;26.02;;;5.30;99.90;;;;;;5035047;28;20033;-67
2024/02/27 02:28:03;;;;;;;54.05;26.52;;;5.30;99.90;;;;;;5034467;28;20042;-67
2024/02/27 02:30:28;;;;;;;53.28;26.58;;;5.30;99.90;;;;;;5034810;28;20464;-67
2024/02/27 02:32:54;;;;;;;57.40;28.10;;;5.30;99.90;;;;;;5034715;28;20061;-67
2024/02/27 02:35:19;;;;;;;53.78;28.05;;;5.30;99.90;;;;;;5034559;28;20036;-67
2024/02/27 02:37:48;;;;;;;58.50;28.70;;;5.30;99.90;;;;;;5034584;28;20056;-67
2024/02/27 02:40:15;;;;;;;56.10;28.02;;;5.30;99.90;;;;;;5034299;28;20033;-67
2024/02/27 02:42:40;;;;;;;55.88;27.27;;;5.30;99.90;;;;;;5034206;28;20033;-67
2024/02/27 02:45:07;;;;;;;56.33;28.10;;;5.30;99.90;;;;;;5034540;28;20030;-67
2024/02/27 02:47:32;;;;;;;53.78;27.08;;;5.30;99.90;;;;;;5034508;28;20035;-67
2024/02/27 02:49:58;;;;;;;56.47;27.17;;;5.30;99.90;;;;;;5034510;28;20041;-67
2024/02/27 02:52:24;;;;;;;58.10;29.17;;;5.30;99.90;;;;;;5034456;28;20043;-67
2024/02/27 02:54:49;;;;;;;62.45;29.27;;;5.30;99.90;;;;;;5034412;28;20061;-67
2024/02/27 02:57:16;;;;;;;53.60;26.67;;;5.30;99.90;;;;;;5034104;28;20057;-67
2024/02/27 02:59:42;;;;;;;55.92;26.60;;;5.30;99.90;;;;;;5034099;28;20091;-67
2024/02/27 03:02:08;;;;;;;57.95;27.95;;;5.30;99.90;;;;;;5034193;28;20083;-67
2024/02/27 03:04:33;;;;;;;56.30;27.73;;;5.30;99.90;;;;;;5034098;28;20021;-67
2024/02/27 03:06:59;;;;;;;53.92;27.95;;;5.20;99.90;;;;;;5034083;28;20025;-67
2024/02/27 03:09:24;;;;;;;57.28;28.95;;;5.20;99.90;;;;;;5034133;28;20036;-67
2024/02/27 03:11:50;;;;;;;52.65;27.00;;;5.20;99.90;;;;;;5034145;28;20037;-67
2024/02/27 03:14:16;;;;;;;61.40;29.27;;;5.20;99.90;;;;;;5033692;28;20025;-67
2024/02/27 03:16:42;;;;;;;55.58;28.23;;;5.20;99.90;;;;;;5034013;28;20029;-67
2024/02/27 03:19:07;;;;;;;57.70;28.88;;;5.20;99.90;;;;;;5033715;28;20384;-67
2024/02/27 03:21:33;;;;;;;53.58;27.75;;;5.20;99.90;;;;;;5033870;28;20037;-67
2024/02/27 03:23:59;;;;;;;53.92;28.05;;;5.20;99.90;;;;;;5033447;28;20025;-67
2024/02/27 03:26:24;;;;;;;54.53;27.45;;;5.10;99.90;;;;;;5033817;28;20498;-66
2024/02/27 03:28:50;;;;;;;53.67;26.17;;;5.20;99.90;;;;;;5032988;28;20026;-67
2024/02/27 03:31:15;;;;;;;52.45;26.88;;;5.10;99.90;;;;;;5033838;28;20033;-67
2024/02/27 03:33:41;;;;;;;54.75;27.58;;;5.10;99.90;;;;;;5033699;28;20036;-67
2024/02/27 03:36:06;;;;;;;55.03;27.77;;;5.10;99.90;;;;;;5033743;28;20041;-67
2024/02/27 03:38:32;;;;;;;56.53;28.75;;;5.10;99.90;;;;;;5033068;28;20036;-67
2024/02/27 03:40:57;;;;;;;58.97;28.30;;;5.10;99.90;;;;;;5033556;28;20064;-67
2024/02/27 03:43:23;;;;;;;52.83;27.02;;;5.10;99.90;;;;;;5033356;28;20449;-67
2024/02/27 03:45:49;;;;;;;54.53;27.77;;;5.00;99.90;;;;;;5033606;28;20491;-67
2024/02/27 03:48:14;;;;;;;53.58;27.02;;;5.00;99.90;;;;;;5033425;28;20490;-67
2024/02/27 03:50:40;;;;;;;54.83;27.60;;;5.00;99.90;;;;;;5033458;28;20411;-67
2024/02/27 03:53:05;;;;;;;56.05;27.48;;;5.00;99.90;;;;;;5033463;28;20480;-67
2024/02/27 03:55:31;;;;;;;56.83;27.55;;;5.00;99.90;;;;;;5033416;28;20384;-67
2024/02/27 03:57:56;;;;;;;53.13;26.27;;;5.00;99.90;;;;;;5033030;28;20050;-66
2024/02/27 04:00:22;;;;;;;50.63;25.70;;;5.00;99.90;;;;;;5033321;28;20060;-67
2024/02/27 04:02:48;;;;;;;55.42;27.05;;;5.00;99.90;;;;;;5033220;28;20049;-67
2024/02/27 04:05:13;;;;;;;54.00;27.48;;;4.90;99.90;;;;;;5033363;28;20026;-67
2024/02/27 04:07:39;;;;;;;58.08;28.13;;;4.90;99.90;;;;;;5033265;28;20040;-67
2024/02/27 04:10:06;;;;;;;54.15;27.35;;;4.90;99.90;;;;;;5033226;28;20072;-67
2024/02/27 04:12:32;;;;;;;54.58;27.60;;;4.90;99.90;;;;;;5033398;28;20030;-67
2024/02/27 04:14:58;;;;;;;57.33;27.52;;;4.90;99.90;;;;;;5033237;28;20034;-67
2024/02/27 04:17:23;;;;;;;53.78;25.98;;;4.90;99.90;;;;;;5032750;28;20506;-66
2024/02/27 04:19:49;;;;;;;50.55;25.38;;;4.90;99.90;;;;;;5033151;28;20450;-67
2024/02/27 04:22:15;;;;;;;54.83;27.67;;;4.80;99.90;;;;;;5033267;28;20035;-67
2024/02/27 04:24:40;;;;;;;57.40;27.73;;;4.80;99.90;;;;;;5033129;28;20381;-68
2024/02/27 04:27:06;;;;;;;55.45;27.70;;;4.80;99.90;;;;;;5033124;28;20108;-67
2024/02/27 04:29:32;;;;;;;54.38;27.05;;;4.80;99.90;;;;;;5033075;28;20462;-67
2024/02/27 04:31:57;;;;;;;51.28;26.10;;;4.80;99.90;;;;;;5033126;28;20029;-67
2024/02/27 04:34:23;;;;;;;55.08;26.70;;;4.80;99.90;;;;;;5033070;28;20495;-67
2024/02/27 04:36:48;;;;;;;49.92;25.58;;;4.80;99.90;;;;;;5033182;28;20086;-67
2024/02/27 04:39:15;;;;;;;51.50;25.52;;;4.80;99.90;;;;;;5032862;28;20025;-66
2024/02/27 04:41:40;;;;;;;55.63;27.35;;;4.80;99.90;;;;;;5036552;28;20052;-67
2024/02/27 04:44:07;;;;;;;55.10;27.58;;;4.70;99.90;;;;;;5036853;28;20033;-67
2024/02/27 04:46:32;;;;;;;52.72;25.40;;;4.70;99.90;;;;;;5036822;28;20028;-67
2024/02/27 04:48:58;;;;;;;55.75;27.80;;;4.70;99.90;;;;;;5036788;28;20037;-67
2024/02/27 04:51:23;;;;;;;49.50;24.75;;;4.60;99.90;;;;;;5036431;28;20032;-67
2024/02/27 04:53:49;;;;;;;54.55;26.75;;;4.60;99.90;;;;;;5036728;28;20033;-67
2024/02/27 04:56:14;;;;;;;53.50;26.90;;;4.60;99.90;;;;;;5036679;28;20041;-67
2024/02/27 04:58:40;;;;;;;55.72;25.83;;;4.60;99.90;;;;;;5036240;28;20450;-67
2024/02/27 05:01:11;;;;;;;57.65;26.58;;;4.60;99.90;;;;;;5036618;28;20043;-67
2024/02/27 05:03:36;;;;;;;57.88;26.88;;;4.60;99.90;;;;;;5036466;28;20021;-67
2024/02/27 05:06:02;;;;;;;53.72;26.55;;;4.50;99.90;;;;;;5036254;28;20025;-66
2024/02/27 05:08:28;;;;;;;55.15;26.70;;;4.50;99.90;;;;;;5036009;28;20372;-69
2024/02/27 05:10:53;;;;;;;55.08;26.67;;;4.40;99.90;;;;;;5036085;28;20475;-67
2024/02/27 05:13:19;;;;;;;60.80;27.45;;;4.40;99.90;;;;;;5036325;28;20033;-67
2024/02/27 05:15:44;;;;;;;57.00;26.77;;;4.40;99.90;;;;;;5036095;28;20048;-67
2024/02/27 05:18:10;;;;;;;55.45;25.30;;;4.30;99.90;;;;;;5036117;28;20396;-67
2024/02/27 05:20:35;;;;;;;57.72;27.80;;;4.30;99.90;;;;;;5036164;28;20468;-67
2024/02/27 05:23:01;;;;;;;56.45;26.83;;;4.30;99.90;;;;;;5036067;28;20025;-67
2024/02/27 05:25:27;;;;;;;58.35;27.42;;;4.30;99.90;;;;;;5036008;28;20453;-68
2024/02/27 05:27:52;;;;;;;56.03;27.15;;;4.20;99.90;;;;;;5035922;28;20475;-67
2024/02/27 05:30:18;;;;;;;58.80;27.77;;;4.20;99.90;;;;;;5036040;28;20230;-67
2024/02/27 05:32:43;;;;;;;61.05;26.75;;;4.20;99.90;;;;;;5035585;28;20026;-67
2024/02/27 05:35:09;;;;;;;56.25;27.23;;;4.20;99.90;;;;;;5035683;28;20034;-68
2024/02/27 05:37:34;;;;;;;58.13;27.90;;;4.20;99.90;;;;;;5035655;28;20030;-67
2024/02/27 05:40:00;;;;;;;59.90;26.95;;;4.20;99.90;;;;;;5036004;28;20072;-68
2024/02/27 05:42:25;;;;;;;59.05;27.48;;;4.20;99.90;;;;;;5035745;28;20022;-67
2024/02/27 05:44:51;;;;;;;60.20;29.00;;;4.10;99.90;;;;;;5035711;28;20053;-67
2024/02/27 05:47:16;;;;;;;66.93;29.42;;;4.10;99.90;;;;;;5035734;28;20036;-68
2024/02/27 05:49:42;;;;;;;59.67;27.45;;;4.10;99.90;;;;;;5035225;28;20029;-67
2024/02/27 05:52:07;;;;;;;60.72;27.13;;;4.00;99.90;;;;;;5035300;28;20038;-67
2024/02/27 05:54:33;;;;;;;60.65;28.63;;;4.00;99.90;;;;;;5035342;28;20076;-67
2024/02/27 05:56:59;;;;;;;62.60;27.67;;;4.00;99.90;;;;;;5035215;28;20041;-67
2024/02/27 05:59:24;;;;;;;66.70;28.33;;;4.00;99.90;;;;;;5035195;28;20488;-67
2024/02/27 06:01:50;;;;;;;60.83;29.40;;;3.90;99.90;;;;;;5035119;28;20462;-68
2024/02/27 06:04:16;;;;;;;63.35;28.70;;;4.00;99.90;;;;;;5035309;28;20026;-68
2024/02/27 06:06:42;;;;;;;67.03;30.00;;;3.90;99.90;;;;;;5035459;28;20373;-68
2024/02/27 06:09:08;;;;;;;69.57;29.50;;;3.80;99.90;;;;;;5035427;28;20032;-68
2024/02/27 06:11:34;;;;;;;66.75;29.52;;;3.80;99.90;;;;;;5035306;28;20034;-67
2024/02/27 06:14:02;;;;;;;69.13;29.75;;;3.80;99.90;;;;;;5033708;28;20025;-67
2024/02/27 06:16:28;;;;;;;65.80;29.55;;;3.80;99.90;;;;;;5035064;28;20075;-68
2024/02/27 06:18:55;;;;;;;69.53;29.63;;;3.80;99.90;;;;;;5034892;28;20387;-68
2024/02/27 06:24:06;;;;;;;64.47;28.77;;;3.80;99.90;;;;;;5034720;28;20479;-68
2024/02/27 06:26:32;;;;;;;68.70;29.42;;;3.80;99.90;;;;;;5035012;28;20041;-67
2024/02/27 06:28:57;;;;;;;64.18;28.55;;;3.80;99.90;;;;;;5034833;28;20112;-67
2024/02/27 06:31:23;;;;;;;70.30;29.77;;;3.70;99.90;;;;;;5034888;28;20040;-67
2024/02/27 06:33:48;;;;;;;66.90;29.63;;;3.80;99.90;;;;;;5034726;28;20064;-67
2024/02/27 06:36:14;;;;;;;69.18;30.02;;;3.70;99.90;;;;;;5035045;28;20513;-68
2024/02/27 06:38:39;;;;;;;61.70;27.33;;;3.70;99.90;;;;;;5034313;28;20030;-67
2024/02/27 06:41:05;;;;;;;69.03;31.20;;;3.70;99.90;;;;;;5034440;28;20026;-67
2024/02/27 06:43:30;;;;;;;67.95;30.55;;;3.70;99.90;;;;;;5034601;28;20168;-68
2024/02/27 06:45:56;;;;;;;65.65;28.15;;;3.70;99.90;;;;;;5048887;28;20052;-67
2024/02/27 06:48:21;;;;;;;66.32;29.30;;;3.60;99.90;;;;;;5053942;28;20538;-68
2024/02/27 06:50:47;;;;;;;70.13;29.13;;;3.60;99.90;;;;;;5052985;28;20025;-67
2024/02/27 06:53:12;;;;;;;60.97;27.00;;;3.60;99.90;;;;;;5054322;28;20473;-67
2024/02/27 06:55:38;;;;;;;69.15;31.17;;;3.60;99.90;;;;;;5054304;28;20033;-68
2024/02/27 06:58:04;;;;;;;65.32;28.10;;;3.60;99.90;;;;;;5053670;28;20047;-67
2024/02/27 07:00:29;;;;;;;72.18;29.65;;;3.60;99.90;;;;;;5053711;28;20029;-67
2024/02/27 07:02:55;;;;;;;65.13;29.20;;;3.60;99.90;;;;;;5053135;28;20029;-67
2024/02/27 07:05:20;;;;;;;61.55;27.92;;;3.60;99.90;;;;;;5053626;28;20047;-67
2024/02/27 07:07:46;;;;;;;71.38;29.17;;;3.60;99.90;;;;;;5053644;28;20025;-67
2024/02/27 07:10:13;;;;;;;59.03;26.85;;;3.60;99.90;;;;;;5052925;28;20078;-67
2024/02/27 07:12:41;;;;;;;62.28;27.90;;;3.60;99.90;;;;;;5053510;28;20029;-68
2024/02/27 07:15:07;;;;;;;67.95;29.42;;;3.70;99.90;;;;;;5053645;28;20064;-67
2024/02/27 07:17:32;;;;;;;61.78;27.98;;;3.70;99.90;;;;;;5053518;28;20060;-68
2024/02/27 07:19:58;;;;;;;64.40;29.02;;;3.70;99.90;;;;;;5053527;28;20025;-68
2024/02/27 07:22:24;;;;;;;59.78;27.52;;;3.90;99.90;;;;;;5053329;28;20372;-67
2024/02/27 07:24:49;;;;;;;60.17;27.70;;;3.90;99.90;;;;;;5053828;28;20036;-68
2024/02/27 07:27:15;;;;;;;65.22;28.80;;;4.00;99.90;;;;;;5053241;28;20032;-67
2024/02/27 07:29:40;;;;;;;58.20;26.35;;;4.00;99.90;;;;;;5052923;28;20025;-67
2024/02/27 07:32:06;;;;;;;55.20;26.50;;;4.00;99.90;;;;;;5052785;28;20029;-68
2024/02/27 07:34:32;;;;;;;61.28;27.65;;;4.10;99.90;;;;;;5051036;28;20017;-68
2024/02/27 07:36:57;;;;;;;61.30;28.45;;;4.10;99.90;;;;;;5051637;28;20032;-68
2024/02/27 07:39:23;;;;;;;61.00;27.92;;;4.20;99.90;;;;;;5052391;28;20041;-68
2024/02/27 07:41:48;;;;;;;54.45;26.55;;;4.20;99.90;;;;;;5052532;28;20056;-68
2024/02/27 07:44:14;;;;;;;59.30;26.77;;;4.10;99.90;;;;;;5052510;28;20113;-70
2024/02/27 07:46:40;;;;;;;55.17;26.25;;;4.10;99.90;;;;;;5052611;28;20029;-71
2024/02/27 07:49:05;;;;;;;61.88;28.70;;;4.00;99.90;;;;;;5052040;28;20032;-69
2024/02/27 07:51:33;;;;;;;56.45;24.90;;;4.00;99.90;;;;;;5052863;28;20042;-70
2024/02/27 07:54:00;;;;;;;51.88;24.52;;;3.90;99.90;;;;;;5052072;28;20029;-72
2024/02/27 07:56:27;;;;;;;50.90;25.10;;;3.80;99.90;;;;;;5052674;28;20495;-73
2024/02/27 07:58:55;;;;;;;49.85;23.60;;;3.90;99.90;;;;;;5052694;28;20095;-75
2024/02/27 08:01:20;;;;;;;49.05;22.83;;;3.80;99.90;;;;;;5052453;28;20186;-73
2024/02/27 08:03:46;;;;;;;54.47;23.80;;;3.90;99.90;;;;;;5052352;28;20067;-72
2024/02/27 08:06:12;;;;;;;53.13;23.55;;;3.90;99.90;;;;;;5052350;28;20390;-73
2024/02/27 08:08:38;;;;;;;48.72;23.55;;;3.90;99.90;;;;;;5054607;28;20031;-72
2024/02/27 08:11:03;;;;;;;53.65;23.98;;;3.90;99.90;;;;;;5051330;28;20076;-72
2024/02/27 08:13:32;;;;;;;52.65;24.15;;;3.90;99.90;;;;;;5052435;28;20035;-72
2024/02/27 08:15:58;;;;;;;51.90;23.95;;;4.00;99.90;;;;;;5056805;28;20032;-73
2024/02/27 08:18:24;;;;;;;51.08;22.65;;;4.00;99.90;;;;;;5056270;28;20104;-74
2024/02/27 08:20:49;;;;;;;52.13;23.35;;;4.00;99.90;;;;;;5056868;28;20047;-72
2024/02/27 08:23:16;;;;;;;52.70;23.75;;;4.00;99.90;;;;;;5060215;28;20025;-73
2024/02/27 08:25:42;;;;;;;47.53;23.45;;;4.10;99.90;;;;;;5056305;28;20425;-69
2024/02/27 08:28:07;;;;;;;52.05;24.55;;;4.00;99.90;;;;;;5056785;28;20032;-73
2024/02/27 08:30:33;;;;;;;47.15;22.05;;;4.00;99.90;;;;;;5056754;28;20455;-72
2024/02/27 08:32:59;;;;;;;48.13;22.30;;;4.10;99.90;;;;;;5056406;28;20112;-71
2024/02/27 08:35:25;;;;;;;44.15;21.63;;;4.10;99.90;;;;;;5055733;28;20029;-72
2024/02/27 08:37:51;;;;;;;49.88;23.13;;;4.10;99.90;;;;;;5055815;28;20040;-72
2024/02/27 08:40:16;;;;;;;43.22;22.42;;;4.30;99.90;;;;;;5056053;28;20446;-72
2024/02/27 08:42:42;;;;;;;45.33;21.13;;;4.40;99.90;;;;;;5055859;28;20116;-69
2024/02/27 08:45:09;;;;;;;39.53;21.02;;;4.50;99.90;;;;;;5053709;28;20025;-73
2024/02/27 08:47:35;;;;;;;40.22;20.65;;;4.40;99.90;;;;;;5061092;28;20028;-72
2024/02/27 08:50:01;;;;;;;41.22;20.33;;;4.40;99.90;;;;;;5052844;28;20078;-74
2024/02/27 08:52:27;;;;;;;38.42;19.92;;;4.40;99.90;;;;;;5055671;28;20033;-73
2024/02/27 08:54:52;;;;;;;36.63;18.90;;;4.30;99.90;;;;;;5054333;28;20042;-72
2024/02/27 08:57:18;;;;;;;37.53;18.35;;;4.30;99.90;;;;;;5054782;28;20044;-74
2024/02/27 08:59:46;;;;;;;36.83;19.48;;;4.30;99.90;;;;;;5055599;28;20044;-71
2024/02/27 09:02:11;;;;;;;37.60;18.83;;;4.40;99.90;;;;;;5055211;28;20110;-73
2024/02/27 09:04:37;;;;;;;33.58;17.85;;;4.40;99.90;;;;;;5055431;28;20067;-72
2024/02/27 09:07:03;;;;;;;35.28;18.17;;;4.40;99.90;;;;;;5054927;28;20025;-73
2024/02/27 09:09:28;;;;;;;33.97;17.65;;;4.60;99.90;;;;;;5055034;28;20475;-74
2024/02/27 09:11:54;;;;;;;33.13;17.67;;;4.70;99.90;;;;;;5054838;28;20391;-73
2024/02/27 09:14:19;;;;;;;28.35;16.40;;;4.80;99.90;;;;;;5054600;28;20048;-72
2024/02/27 09:16:45;;;;;;;33.80;17.23;;;4.80;99.90;;;;;;5055290;28;20491;-74
2024/02/27 09:19:11;;;;;;;32.40;16.98;;;4.80;99.90;;;;;;5054540;28;20033;-75
2024/02/27 09:21:36;;;;;;;30.88;15.52;;;4.80;99.90;;;;;;5055238;28;20021;-77
2024/02/27 09:24:02;;;;;;;30.42;16.70;;;4.60;99.90;;;;;;5054753;28;20483;-75
2024/02/27 09:26:27;;;;;;;30.90;16.80;;;4.70;99.90;;;;;;5059231;28;20445;-76
2024/02/27 09:28:55;;;;;;;28.60;16.25;;;4.80;99.90;;;;;;5055440;28;20079;-73
2024/02/27 09:31:20;;;;;;;29.15;17.02;;;4.90;99.90;;;;;;5054659;28;20029;-73
2024/02/27 09:33:46;;;;;;;27.58;15.32;;;5.00;99.90;;;;;;5055517;28;20442;-73
2024/02/27 09:36:12;;;;;;;30.98;16.35;;;5.00;99.90;;;;;;5060545;28;20037;-72
2024/02/27 09:38:37;;;;;;;32.47;17.40;;;5.00;99.90;;;;;;5054738;28;20114;-72
2024/02/27 09:41:03;;;;;;;28.58;15.65;;;5.40;99.90;;;;;;5054104;28;20340;-72
2024/02/27 09:43:30;;;;;;;31.27;15.50;;;5.70;99.90;;;;;;5054422;28;20505;-74
2024/02/27 09:45:58;;;;;;;28.33;15.45;;;5.70;99.90;;;;;;5068568;28;20060;-73
2024/02/27 09:48:28;;;;;;;25.38;14.50;;;5.70;99.90;;;;;;5064974;28;20043;-73
2024/02/27 09:50:55;;;;;;;31.98;17.30;;;5.60;99.90;;;;;;5057817;28;20058;-73
2024/02/27 09:53:22;;;;;;;28.65;15.77;;;5.60;99.90;;;;;;5053451;28;20123;-74
2024/02/27 09:55:48;;;;;;;26.48;14.57;;;5.60;99.90;;;;;;5053660;28;20186;-75
2024/02/27 09:58:16;;;;;;;27.58;15.13;;;5.70;99.90;;;;;;5055720;28;20040;-75
2024/02/27 10:00:41;;;;;;;29.50;16.00;;;6.00;99.90;;;;;;5053540;28;20063;-74
2024/02/27 10:03:08;;;;;;;24.75;14.77;;;6.30;99.90;;;;;;5049706;28;20057;-74
2024/02/27 10:05:37;;;;;;;29.13;16.45;;;6.50;99.90;;;;;;5053516;28;20033;-71
2024/02/27 10:08:08;;;;;;;27.15;15.63;;;6.00;99.90;;;;;;5052897;28;20162;-71
2024/02/27 10:10:35;;;;;;;31.05;17.42;;;6.00;99.90;;;;;;5054754;28;20032;-71
2024/02/27 10:13:00;;;;;;;27.85;15.68;;;6.10;99.90;;;;;;5054984;28;20191;-70
2024/02/27 10:15:26;;;;;;;27.35;15.35;;;6.10;99.90;;;;;;5054720;28;20150;-71
2024/02/27 10:17:54;;;;;;;27.15;15.63;;;6.20;99.90;;;;;;5054504;28;20029;-71
2024/02/27 10:20:27;;;;;;;29.90;17.08;;;6.20;99.90;;;;;;5054237;28;20025;-70
2024/02/27 10:22:53;;;;;;;32.78;19.80;;;6.20;99.90;;;;;;5053870;28;20028;-71
2024/02/27 10:25:19;;;;;;;32.42;18.92;;;6.40;99.90;;;;;;5054638;28;20033;-71
2024/02/27 10:27:45;;;;;;;30.48;18.38;;;6.50;99.90;;;;;;5054588;28;20029;-70
2024/02/27 10:30:11;;;;;;;30.05;18.23;;;6.30;99.90;;;;;;5053768;28;20044;-71
2024/02/27 10:32:40;;;;;;;28.10;17.30;;;6.50;99.90;;;;;;5054340;28;20391;-71
2024/02/27 10:35:06;;;;;;;28.30;17.10;;;6.70;99.90;;;;;;5055448;28;20552;-72
2024/02/27 10:37:31;;;;;;;29.92;17.25;;;6.50;99.90;;;;;;5054360;28;20028;-73
2024/02/27 10:39:59;;;;;;;28.90;15.20;;;6.80;99.90;;;;;;5053913;28;20029;-74
2024/02/27 10:42:27;;;;;;;28.05;15.05;;;6.60;99.90;;;;;;5066642;28;20032;-75
2024/02/27 10:44:52;;;;;;;27.85;13.95;;;6.70;99.90;;;;;;5064151;28;20063;-75
2024/02/27 10:47:20;;;;;;;27.20;16.30;;;6.80;99.90;;;;;;5070026;28;20057;-74
2024/02/27 10:49:47;;;;;;;25.67;15.82;;;7.30;99.90;;;;;;5053814;28;20033;-74
2024/02/27 10:52:16;;;;;;;25.55;14.15;;;7.50;99.90;;;;;;5053999;28;20083;-75
2024/02/27 10:54:45;;;;;;;24.05;13.90;;;7.50;99.90;;;;;;5054011;28;20479;-75
2024/02/27 10:57:12;;;;;;;23.67;14.52;;;7.10;99.90;;;;;;5053263;28;20107;-74
2024/02/27 10:59:39;;;;;;;24.52;14.18;;;7.00;99.90;;;;;;5052839;28;20041;-75
2024/02/27 11:02:14;;;;;;;24.83;14.27;;;7.20;99.90;;;;;;5052809;28;20033;-74
2024/02/27 11:04:42;;;;;;;26.80;14.50;;;7.00;99.90;;;;;;5058621;28;20033;-73
2024/02/27 11:07:11;;;;;;;25.58;13.00;;;6.70;99.90;;;;;;5053741;28;20031;-73
2024/02/27 11:09:37;;;;;;;24.52;14.48;;;6.70;99.90;;;;;;5053197;28;20021;-74
2024/02/27 11:12:03;;;;;;;25.08;14.82;;;6.80;99.90;;;;;;5053257;28;20380;-74
2024/02/27 11:14:31;;;;;;;22.98;14.10;;;7.00;99.90;;;;;;5052796;28;20053;-74
2024/02/27 11:17:03;;;;;;;24.60;14.32;;;7.00;99.90;;;;;;5052492;28;20037;-72
2024/02/27 11:19:34;;;;;;;26.95;14.63;;;7.00;99.90;;;;;;5052920;28;20059;-72
2024/02/27 11:22:00;;;;;;;24.90;13.77;;;6.90;99.90;;;;;;5052726;28;20487;-69
2024/02/27 11:24:26;;;;;;;25.05;14.63;;;6.70;99.90;;;;;;5052975;28;20025;-69
2024/02/27 11:26:52;;;;;;;24.48;14.68;;;6.80;99.90;;;;;;5051810;28;20029;-69
2024/02/27 11:29:18;;;;;;;20.80;12.63;;;7.50;99.90;;;;;;5052892;28;20033;-69
2024/02/27 11:31:44;;;;;;;24.42;13.35;;;7.80;99.90;;;;;;5051940;28;20025;-69
2024/02/27 11:34:10;;;;;;;22.70;13.95;;;7.70;99.90;;;;;;5052278;28;20025;-70
2024/02/27 11:36:35;;;;;;;22.98;13.48;;;7.30;99.90;;;;;;5052837;28;20041;-69
2024/02/27 11:39:01;;;;;;;22.13;13.35;;;7.00;99.90;;;;;;5052638;28;20050;-69
2024/02/27 11:41:27;;;;;;;24.02;13.73;;;7.40;99.90;;;;;;5052326;28;20044;-69
2024/02/27 11:43:55;;;;;;;23.70;13.98;;;7.90;99.90;;;;;;5052614;28;20041;-69
2024/02/27 11:49:06;;;;;;;22.73;14.27;;;8.60;1.00;;;;;;5110325;27;20434;-68
2024/02/27 11:51:36;;;;;;;21.17;13.60;;;9.30;64.10;;;;;;5102071;28;20070;-69
2024/02/27 11:54:07;;;;;;;23.45;13.75;;;9.50;7.00;;;;;;5095073;28;20486;-71
2024/02/27 11:56:38;;;;;;;22.15;13.98;;;9.10;99.90;;;;;;5089175;28;20411;-70
2024/02/27 11:59:04;;;;;;;22.42;12.65;;;8.50;77.00;;;;;;5089052;28;20020;-71
2024/02/27 12:01:30;;;;;;;22.10;13.52;;;8.10;1.00;;;;;;5096523;28;20088;-71
2024/02/27 12:03:55;;;;;;;21.95;13.15;;;8.10;99.90;;;;;;5090410;28;20103;-71
2024/02/27 12:06:21;;;;;;;24.75;13.57;;;8.00;1.00;;;;;;5091925;28;20024;-71
2024/02/27 12:08:47;;;;;;;22.05;13.45;;;7.80;99.90;;;;;;5092688;28;20114;-71
2024/02/27 12:11:16;;;;;;;23.67;13.43;;;8.00;99.90;;;;;;5094500;28;20067;-75
2024/02/27 12:13:45;;;;;;;25.73;14.57;;;7.60;61.60;;;;;;5090509;28;20123;-75
2024/02/27 12:16:11;;;;;;;24.17;13.73;;;7.70;99.90;;;;;;5090771;28;20050;-75
2024/02/27 12:18:37;;;;;;;23.08;13.93;;;7.50;99.90;;;;;;5090989;28;20113;-75
2024/02/27 12:21:02;;;;;;;23.20;13.30;;;7.50;1.00;;;;;;5088894;28;20527;-73
2024/02/27 12:23:30;;;;;;;25.27;14.18;;;7.50;96.60;;;;;;5086928;28;20473;-73
2024/02/27 12:25:57;;;;;;;28.25;14.57;;;7.30;81.90;;;;;;5090357;28;20047;-75
2024/02/27 12:28:22;;;;;;;21.52;13.27;;;7.40;1.00;;;;;;5088765;28;20047;-74
2024/02/27 12:30:49;;;;;;;23.58;13.10;;;7.80;2.00;;;;;;5089290;28;20025;-74
2024/02/27 12:33:16;;;;;;;22.10;13.57;;;7.50;99.90;;;;;;5088069;28;20028;-75
2024/02/27 12:35:43;;;;;;;22.17;12.45;;;7.50;1.00;;;;;;5088748;28;20021;-75
2024/02/27 12:38:08;;;;;;;24.17;12.88;;;7.80;73.60;;;;;;5088601;28;20036;-76